sensor_id;sensor_type;location;lat;lon;timestamp;P1;durP1;ratioP1;P2;durP2;ratioP2
10144;SDS011;5113;41.822;23.564;2023-07-16T00:02:57;8.40;;;7.50;;
10144;SDS011;5113;41.822;23.564;2023-07-16T00:06:04;10.50;;;7.90;;
10144;SDS011;5113;41.822;23.564;2023-07-16T00:09:11;12.43;;;8.33;;
10144;SDS011;5113;41.822;23.564;2023-07-16T00:12:17;9.77;;;8.17;;
10144;SDS011;5113;41.822;23.564;2023-07-16T00:15:23;14.87;;;8.53;;
10144;SDS011;5113;41.822;23.564;2023-07-16T00:18:31;15.33;;;8.73;;
10144;SDS011;5113;41.822;23.564;2023-07-16T00:21:37;16.77;;;9.30;;
10144;SDS011;5113;41.822;23.564;2023-07-16T00:24:44;12.13;;;9.20;;
10144;SDS011;5113;41.822;23.564;2023-07-16T00:27:50;10.33;;;8.87;;
10144;SDS011;5113;41.822;23.564;2023-07-16T00:30:56;10.40;;;8.63;;
10144;SDS011;5113;41.822;23.564;2023-07-16T00:34:04;12.87;;;9.93;;
10144;SDS011;5113;41.822;23.564;2023-07-16T00:37:10;11.67;;;8.40;;
10144;SDS011;5113;41.822;23.564;2023-07-16T00:40:16;9.77;;;8.17;;
10144;SDS011;5113;41.822;23.564;2023-07-16T00:43:23;10.73;;;8.27;;
10144;SDS011;5113;41.822;23.564;2023-07-16T00:46:29;12.73;;;9.20;;
10144;SDS011;5113;41.822;23.564;2023-07-16T00:49:37;11.27;;;9.83;;
10144;SDS011;5113;41.822;23.564;2023-07-16T00:52:44;12.17;;;8.53;;
10144;SDS011;5113;41.822;23.564;2023-07-16T00:55:50;11.30;;;8.97;;
10144;SDS011;5113;41.822;23.564;2023-07-16T00:58:57;11.67;;;9.33;;
10144;SDS011;5113;41.822;23.564;2023-07-16T01:02:04;10.67;;;9.50;;
10144;SDS011;5113;41.822;23.564;2023-07-16T01:05:12;11.50;;;9.63;;
10144;SDS011;5113;41.822;23.564;2023-07-16T01:08:20;12.07;;;9.07;;
10144;SDS011;5113;41.822;23.564;2023-07-16T01:11:33;11.87;;;9.90;;
10144;SDS011;5113;41.822;23.564;2023-07-16T01:14:40;11.53;;;9.07;;
10144;SDS011;5113;41.822;23.564;2023-07-16T01:17:47;11.57;;;9.40;;
10144;SDS011;5113;41.822;23.564;2023-07-16T01:20:55;10.90;;;9.80;;
10144;SDS011;5113;41.822;23.564;2023-07-16T01:24:08;12.87;;;9.93;;
10144;SDS011;5113;41.822;23.564;2023-07-16T01:27:34;12.23;;;9.27;;
10144;SDS011;5113;41.822;23.564;2023-07-16T01:31:03;12.37;;;10.13;;
10144;SDS011;5113;41.822;23.564;2023-07-16T01:34:11;11.50;;;8.80;;
10144;SDS011;5113;41.822;23.564;2023-07-16T01:37:19;13.43;;;8.43;;
10144;SDS011;5113;41.822;23.564;2023-07-16T01:40:25;12.43;;;9.87;;
10144;SDS011;5113;41.822;23.564;2023-07-16T01:43:31;12.87;;;9.97;;
10144;SDS011;5113;41.822;23.564;2023-07-16T01:46:39;14.63;;;9.60;;
10144;SDS011;5113;41.822;23.564;2023-07-16T01:49:45;12.87;;;9.90;;
10144;SDS011;5113;41.822;23.564;2023-07-16T01:52:52;12.47;;;8.80;;
10144;SDS011;5113;41.822;23.564;2023-07-16T01:56:00;13.20;;;9.77;;
10144;SDS011;5113;41.822;23.564;2023-07-16T01:59:06;12.33;;;9.13;;
10144;SDS011;5113;41.822;23.564;2023-07-16T02:02:14;11.47;;;8.93;;
10144;SDS011;5113;41.822;23.564;2023-07-16T02:05:21;10.43;;;9.00;;
10144;SDS011;5113;41.822;23.564;2023-07-16T02:08:27;12.97;;;9.30;;
10144;SDS011;5113;41.822;23.564;2023-07-16T02:11:33;11.40;;;8.47;;
10144;SDS011;5113;41.822;23.564;2023-07-16T02:14:40;11.57;;;8.90;;
10144;SDS011;5113;41.822;23.564;2023-07-16T02:17:47;14.20;;;9.63;;
10144;SDS011;5113;41.822;23.564;2023-07-16T02:20:53;12.93;;;9.93;;
10144;SDS011;5113;41.822;23.564;2023-07-16T02:24:00;14.50;;;10.57;;
10144;SDS011;5113;41.822;23.564;2023-07-16T02:27:06;17.07;;;8.83;;
10144;SDS011;5113;41.822;23.564;2023-07-16T02:30:13;10.97;;;8.97;;
10144;SDS011;5113;41.822;23.564;2023-07-16T02:33:21;11.57;;;9.07;;
10144;SDS011;5113;41.822;23.564;2023-07-16T02:36:28;13.20;;;9.57;;
10144;SDS011;5113;41.822;23.564;2023-07-16T02:39:34;11.67;;;9.07;;
10144;SDS011;5113;41.822;23.564;2023-07-16T02:42:40;13.90;;;9.13;;
10144;SDS011;5113;41.822;23.564;2023-07-16T02:45:46;13.00;;;9.77;;
10144;SDS011;5113;41.822;23.564;2023-07-16T02:48:53;11.87;;;9.57;;
10144;SDS011;5113;41.822;23.564;2023-07-16T02:52:00;9.97;;;8.97;;
10144;SDS011;5113;41.822;23.564;2023-07-16T02:55:06;12.53;;;9.47;;
10144;SDS011;5113;41.822;23.564;2023-07-16T02:58:13;11.00;;;8.20;;
10144;SDS011;5113;41.822;23.564;2023-07-16T03:01:19;11.43;;;8.47;;
10144;SDS011;5113;41.822;23.564;2023-07-16T03:04:27;12.20;;;8.80;;
10144;SDS011;5113;41.822;23.564;2023-07-16T03:07:33;10.77;;;8.83;;
10144;SDS011;5113;41.822;23.564;2023-07-16T03:10:40;12.00;;;9.80;;
10144;SDS011;5113;41.822;23.564;2023-07-16T03:13:46;13.97;;;8.40;;
10144;SDS011;5113;41.822;23.564;2023-07-16T03:16:52;11.47;;;9.50;;
10144;SDS011;5113;41.822;23.564;2023-07-16T03:20:00;12.87;;;8.73;;
10144;SDS011;5113;41.822;23.564;2023-07-16T03:23:08;11.10;;;9.20;;
10144;SDS011;5113;41.822;23.564;2023-07-16T03:26:14;11.40;;;9.27;;
10144;SDS011;5113;41.822;23.564;2023-07-16T03:29:21;12.63;;;8.67;;
10144;SDS011;5113;41.822;23.564;2023-07-16T03:32:27;13.93;;;9.63;;
10144;SDS011;5113;41.822;23.564;2023-07-16T03:35:55;12.50;;;9.80;;
10144;SDS011;5113;41.822;23.564;2023-07-16T03:39:02;11.60;;;9.73;;
10144;SDS011;5113;41.822;23.564;2023-07-16T03:42:08;9.70;;;8.53;;
10144;SDS011;5113;41.822;23.564;2023-07-16T03:45:14;11.30;;;9.57;;
10144;SDS011;5113;41.822;23.564;2023-07-16T03:48:20;12.80;;;10.00;;
10144;SDS011;5113;41.822;23.564;2023-07-16T03:51:28;12.13;;;9.57;;
10144;SDS011;5113;41.822;23.564;2023-07-16T03:54:34;15.73;;;10.53;;
10144;SDS011;5113;41.822;23.564;2023-07-16T03:57:40;13.23;;;9.40;;
10144;SDS011;5113;41.822;23.564;2023-07-16T04:00:46;10.67;;;9.60;;
10144;SDS011;5113;41.822;23.564;2023-07-16T04:03:52;16.07;;;10.47;;
10144;SDS011;5113;41.822;23.564;2023-07-16T04:07:00;13.60;;;10.20;;
10144;SDS011;5113;41.822;23.564;2023-07-16T04:10:07;13.17;;;9.90;;
10144;SDS011;5113;41.822;23.564;2023-07-16T04:13:13;11.43;;;9.30;;
10144;SDS011;5113;41.822;23.564;2023-07-16T04:16:19;11.70;;;9.40;;
10144;SDS011;5113;41.822;23.564;2023-07-16T04:19:25;13.07;;;9.70;;
10144;SDS011;5113;41.822;23.564;2023-07-16T04:22:34;11.00;;;9.77;;
10144;SDS011;5113;41.822;23.564;2023-07-16T04:25:40;12.83;;;10.17;;
10144;SDS011;5113;41.822;23.564;2023-07-16T04:28:47;13.60;;;10.07;;
10144;SDS011;5113;41.822;23.564;2023-07-16T04:31:53;12.67;;;9.80;;
10144;SDS011;5113;41.822;23.564;2023-07-16T04:34:59;11.33;;;9.77;;
10144;SDS011;5113;41.822;23.564;2023-07-16T04:38:07;11.57;;;9.47;;
10144;SDS011;5113;41.822;23.564;2023-07-16T04:41:15;16.67;;;9.63;;
10144;SDS011;5113;41.822;23.564;2023-07-16T04:44:21;15.50;;;11.37;;
10144;SDS011;5113;41.822;23.564;2023-07-16T04:47:28;11.90;;;9.33;;
10144;SDS011;5113;41.822;23.564;2023-07-16T04:50:34;12.40;;;10.07;;
10144;SDS011;5113;41.822;23.564;2023-07-16T04:53:41;12.37;;;9.60;;
10144;SDS011;5113;41.822;23.564;2023-07-16T04:56:47;13.97;;;10.63;;
10144;SDS011;5113;41.822;23.564;2023-07-16T04:59:53;13.13;;;10.77;;
10144;SDS011;5113;41.822;23.564;2023-07-16T05:03:00;13.87;;;11.27;;
10144;SDS011;5113;41.822;23.564;2023-07-16T05:06:06;15.90;;;11.90;;
10144;SDS011;5113;41.822;23.564;2023-07-16T05:09:14;15.07;;;11.27;;
10144;SDS011;5113;41.822;23.564;2023-07-16T05:12:20;15.10;;;11.17;;
10144;SDS011;5113;41.822;23.564;2023-07-16T05:15:26;15.97;;;11.00;;
10144;SDS011;5113;41.822;23.564;2023-07-16T05:18:32;15.67;;;11.20;;
10144;SDS011;5113;41.822;23.564;2023-07-16T05:21:38;14.60;;;10.30;;
10144;SDS011;5113;41.822;23.564;2023-07-16T05:24:46;14.00;;;10.80;;
10144;SDS011;5113;41.822;23.564;2023-07-16T05:27:53;16.33;;;12.40;;
10144;SDS011;5113;41.822;23.564;2023-07-16T05:30:59;16.63;;;10.43;;
10144;SDS011;5113;41.822;23.564;2023-07-16T05:34:06;13.80;;;11.00;;
10144;SDS011;5113;41.822;23.564;2023-07-16T05:37:12;12.80;;;9.67;;
10144;SDS011;5113;41.822;23.564;2023-07-16T05:40:20;12.97;;;10.07;;
10144;SDS011;5113;41.822;23.564;2023-07-16T05:43:27;12.23;;;9.90;;
10144;SDS011;5113;41.822;23.564;2023-07-16T05:46:33;15.10;;;11.32;;
10144;SDS011;5113;41.822;23.564;2023-07-16T05:49:39;12.23;;;10.17;;
10144;SDS011;5113;41.822;23.564;2023-07-16T05:52:45;12.10;;;9.60;;
10144;SDS011;5113;41.822;23.564;2023-07-16T05:55:54;12.15;;;9.82;;
10144;SDS011;5113;41.822;23.564;2023-07-16T05:59:01;12.10;;;8.97;;
10144;SDS011;5113;41.822;23.564;2023-07-16T06:02:07;11.40;;;9.60;;
10144;SDS011;5113;41.822;23.564;2023-07-16T06:05:13;10.90;;;9.43;;
10144;SDS011;5113;41.822;23.564;2023-07-16T06:08:19;17.35;;;10.07;;
10144;SDS011;5113;41.822;23.564;2023-07-16T06:11:27;14.65;;;10.48;;
10144;SDS011;5113;41.822;23.564;2023-07-16T06:14:33;10.07;;;8.90;;
10144;SDS011;5113;41.822;23.564;2023-07-16T06:17:39;12.43;;;10.23;;
10144;SDS011;5113;41.822;23.564;2023-07-16T06:20:46;14.15;;;9.82;;
10144;SDS011;5113;41.822;23.564;2023-07-16T06:23:52;11.85;;;10.05;;
10144;SDS011;5113;41.822;23.564;2023-07-16T06:26:59;15.85;;;10.48;;
10144;SDS011;5113;41.822;23.564;2023-07-16T06:30:06;10.98;;;9.88;;
10144;SDS011;5113;41.822;23.564;2023-07-16T06:33:13;13.98;;;9.60;;
10144;SDS011;5113;41.822;23.564;2023-07-16T06:36:19;11.57;;;9.43;;
10144;SDS011;5113;41.822;23.564;2023-07-16T06:39:26;13.18;;;10.38;;
10144;SDS011;5113;41.822;23.564;2023-07-16T06:42:33;14.52;;;10.25;;
10144;SDS011;5113;41.822;23.564;2023-07-16T06:45:40;11.27;;;10.07;;
10144;SDS011;5113;41.822;23.564;2023-07-16T06:48:46;9.60;;;8.65;;
10144;SDS011;5113;41.822;23.564;2023-07-16T06:51:52;12.13;;;9.55;;
10144;SDS011;5113;41.822;23.564;2023-07-16T06:54:58;12.38;;;9.70;;
10144;SDS011;5113;41.822;23.564;2023-07-16T06:58:09;11.23;;;9.18;;
10144;SDS011;5113;41.822;23.564;2023-07-16T07:01:16;10.52;;;9.10;;
10144;SDS011;5113;41.822;23.564;2023-07-16T07:04:22;9.70;;;8.50;;
10144;SDS011;5113;41.822;23.564;2023-07-16T07:07:28;13.23;;;9.38;;
10144;SDS011;5113;41.822;23.564;2023-07-16T07:10:34;9.57;;;8.57;;
10144;SDS011;5113;41.822;23.564;2023-07-16T07:13:44;13.55;;;9.32;;
10144;SDS011;5113;41.822;23.564;2023-07-16T07:16:50;10.63;;;9.27;;
10144;SDS011;5113;41.822;23.564;2023-07-16T07:19:56;11.07;;;9.05;;
10144;SDS011;5113;41.822;23.564;2023-07-16T07:23:03;12.68;;;8.40;;
10144;SDS011;5113;41.822;23.564;2023-07-16T07:26:10;10.38;;;8.70;;
10144;SDS011;5113;41.822;23.564;2023-07-16T07:29:18;9.93;;;8.90;;
10144;SDS011;5113;41.822;23.564;2023-07-16T07:32:24;14.55;;;10.13;;
10144;SDS011;5113;41.822;23.564;2023-07-16T07:35:30;10.02;;;9.02;;
10144;SDS011;5113;41.822;23.564;2023-07-16T07:38:36;10.43;;;8.07;;
10144;SDS011;5113;41.822;23.564;2023-07-16T07:41:43;9.45;;;8.32;;
10144;SDS011;5113;41.822;23.564;2023-07-16T07:44:51;12.13;;;8.68;;
10144;SDS011;5113;41.822;23.564;2023-07-16T07:47:57;10.75;;;9.25;;
10144;SDS011;5113;41.822;23.564;2023-07-16T07:51:03;9.85;;;8.88;;
10144;SDS011;5113;41.822;23.564;2023-07-16T07:54:10;10.48;;;8.85;;
10144;SDS011;5113;41.822;23.564;2023-07-16T07:57:16;10.05;;;8.88;;
10144;SDS011;5113;41.822;23.564;2023-07-16T08:00:23;10.80;;;8.85;;
10144;SDS011;5113;41.822;23.564;2023-07-16T08:03:29;9.98;;;8.77;;
10144;SDS011;5113;41.822;23.564;2023-07-16T08:06:36;10.13;;;9.13;;
10144;SDS011;5113;41.822;23.564;2023-07-16T08:09:42;10.40;;;9.00;;
10144;SDS011;5113;41.822;23.564;2023-07-16T08:12:49;10.68;;;9.02;;
10144;SDS011;5113;41.822;23.564;2023-07-16T08:15:57;10.75;;;8.82;;
10144;SDS011;5113;41.822;23.564;2023-07-16T08:19:03;9.88;;;8.88;;
10144;SDS011;5113;41.822;23.564;2023-07-16T08:22:09;12.35;;;8.85;;
10144;SDS011;5113;41.822;23.564;2023-07-16T08:25:16;8.95;;;7.82;;
10144;SDS011;5113;41.822;23.564;2023-07-16T08:28:22;9.32;;;8.38;;
10144;SDS011;5113;41.822;23.564;2023-07-16T08:31:30;9.38;;;8.23;;
10144;SDS011;5113;41.822;23.564;2023-07-16T08:34:37;11.13;;;8.25;;
10144;SDS011;5113;41.822;23.564;2023-07-16T08:37:43;9.75;;;8.52;;
10144;SDS011;5113;41.822;23.564;2023-07-16T08:40:49;9.70;;;8.70;;
10144;SDS011;5113;41.822;23.564;2023-07-16T08:43:56;11.10;;;8.15;;
10144;SDS011;5113;41.822;23.564;2023-07-16T08:47:04;12.40;;;8.45;;
10144;SDS011;5113;41.822;23.564;2023-07-16T08:50:11;9.77;;;8.77;;
10144;SDS011;5113;41.822;23.564;2023-07-16T08:53:18;10.30;;;9.30;;
10144;SDS011;5113;41.822;23.564;2023-07-16T08:56:25;12.13;;;8.60;;
10144;SDS011;5113;41.822;23.564;2023-07-16T08:59:32;9.20;;;8.30;;
10144;SDS011;5113;41.822;23.564;2023-07-16T09:02:40;10.23;;;9.05;;
10144;SDS011;5113;41.822;23.564;2023-07-16T09:05:47;11.10;;;9.07;;
10144;SDS011;5113;41.822;23.564;2023-07-16T09:08:53;12.52;;;9.07;;
10144;SDS011;5113;41.822;23.564;2023-07-16T09:11:59;11.98;;;8.75;;
10144;SDS011;5113;41.822;23.564;2023-07-16T09:15:06;10.52;;;9.05;;
10144;SDS011;5113;41.822;23.564;2023-07-16T09:18:15;11.20;;;9.05;;
10144;SDS011;5113;41.822;23.564;2023-07-16T09:21:26;9.40;;;8.48;;
10144;SDS011;5113;41.822;23.564;2023-07-16T09:24:36;11.02;;;8.23;;
10144;SDS011;5113;41.822;23.564;2023-07-16T09:27:42;9.63;;;8.63;;
10144;SDS011;5113;41.822;23.564;2023-07-16T09:30:51;9.93;;;8.13;;
10144;SDS011;5113;41.822;23.564;2023-07-16T09:33:59;9.05;;;8.23;;
10144;SDS011;5113;41.822;23.564;2023-07-16T09:37:05;10.07;;;8.38;;
10144;SDS011;5113;41.822;23.564;2023-07-16T09:40:12;9.85;;;8.77;;
10144;SDS011;5113;41.822;23.564;2023-07-16T09:43:19;11.48;;;8.82;;
10144;SDS011;5113;41.822;23.564;2023-07-16T09:46:26;8.38;;;7.65;;
10144;SDS011;5113;41.822;23.564;2023-07-16T09:49:34;8.93;;;8.02;;
10144;SDS011;5113;41.822;23.564;2023-07-16T09:52:41;10.98;;;7.53;;
10144;SDS011;5113;41.822;23.564;2023-07-16T09:55:48;8.65;;;7.55;;
10144;SDS011;5113;41.822;23.564;2023-07-16T09:58:55;8.85;;;7.95;;
10144;SDS011;5113;41.822;23.564;2023-07-16T10:02:04;8.70;;;7.78;;
10144;SDS011;5113;41.822;23.564;2023-07-16T10:05:13;9.23;;;8.27;;
10144;SDS011;5113;41.822;23.564;2023-07-16T10:08:20;9.82;;;7.93;;
10144;SDS011;5113;41.822;23.564;2023-07-16T10:11:27;11.43;;;8.40;;
10144;SDS011;5113;41.822;23.564;2023-07-16T10:14:38;9.10;;;7.47;;
10144;SDS011;5113;41.822;23.564;2023-07-16T10:17:49;8.70;;;7.38;;
10144;SDS011;5113;41.822;23.564;2023-07-16T10:21:01;8.70;;;6.90;;
10144;SDS011;5113;41.822;23.564;2023-07-16T10:24:16;7.78;;;6.22;;
10144;SDS011;5113;41.822;23.564;2023-07-16T10:27:28;7.43;;;6.65;;
10144;SDS011;5113;41.822;23.564;2023-07-16T10:30:35;6.97;;;6.28;;
10144;SDS011;5113;41.822;23.564;2023-07-16T10:33:41;9.15;;;7.57;;
10144;SDS011;5113;41.822;23.564;2023-07-16T10:36:49;7.97;;;6.93;;
10144;SDS011;5113;41.822;23.564;2023-07-16T10:39:57;8.40;;;7.07;;
10144;SDS011;5113;41.822;23.564;2023-07-16T10:43:04;7.65;;;6.95;;
10144;SDS011;5113;41.822;23.564;2023-07-16T10:46:12;7.63;;;6.93;;
10144;SDS011;5113;41.822;23.564;2023-07-16T10:49:26;7.00;;;6.43;;
10144;SDS011;5113;41.822;23.564;2023-07-16T10:52:35;7.55;;;6.85;;
10144;SDS011;5113;41.822;23.564;2023-07-16T10:55:42;7.38;;;6.78;;
10144;SDS011;5113;41.822;23.564;2023-07-16T10:58:49;8.00;;;6.93;;
10144;SDS011;5113;41.822;23.564;2023-07-16T11:01:55;7.65;;;6.93;;
10144;SDS011;5113;41.822;23.564;2023-07-16T11:05:02;7.20;;;6.60;;
10144;SDS011;5113;41.822;23.564;2023-07-16T11:08:10;7.65;;;6.85;;
10144;SDS011;5113;41.822;23.564;2023-07-16T11:11:29;6.88;;;6.18;;
10144;SDS011;5113;41.822;23.564;2023-07-16T11:14:36;9.52;;;6.80;;
10144;SDS011;5113;41.822;23.564;2023-07-16T11:17:43;6.57;;;6.00;;
10144;SDS011;5113;41.822;23.564;2023-07-16T11:20:55;8.48;;;6.65;;
10144;SDS011;5113;41.822;23.564;2023-07-16T11:24:09;7.22;;;6.53;;
10144;SDS011;5113;41.822;23.564;2023-07-16T11:27:17;7.97;;;7.18;;
10144;SDS011;5113;41.822;23.564;2023-07-16T11:30:24;7.10;;;6.30;;
10144;SDS011;5113;41.822;23.564;2023-07-16T11:33:34;8.02;;;6.90;;
10144;SDS011;5113;41.822;23.564;2023-07-16T11:36:41;8.23;;;6.50;;
10144;SDS011;5113;41.822;23.564;2023-07-16T11:39:49;7.78;;;6.72;;
10144;SDS011;5113;41.822;23.564;2023-07-16T11:42:55;7.93;;;6.53;;
10144;SDS011;5113;41.822;23.564;2023-07-16T11:46:02;7.20;;;6.25;;
10144;SDS011;5113;41.822;23.564;2023-07-16T11:49:08;6.45;;;5.90;;
10144;SDS011;5113;41.822;23.564;2023-07-16T11:52:18;7.50;;;6.25;;
10144;SDS011;5113;41.822;23.564;2023-07-16T11:55:26;9.77;;;6.93;;
10144;SDS011;5113;41.822;23.564;2023-07-16T11:58:33;7.70;;;6.90;;
10144;SDS011;5113;41.822;23.564;2023-07-16T12:01:40;8.13;;;7.03;;
10144;SDS011;5113;41.822;23.564;2023-07-16T12:04:46;11.20;;;6.80;;
10144;SDS011;5113;41.822;23.564;2023-07-16T12:07:52;7.13;;;6.43;;
10144;SDS011;5113;41.822;23.564;2023-07-16T12:11:00;7.50;;;6.80;;
10144;SDS011;5113;41.822;23.564;2023-07-16T12:14:07;8.68;;;6.60;;
10144;SDS011;5113;41.822;23.564;2023-07-16T12:17:13;8.68;;;6.82;;
10144;SDS011;5113;41.822;23.564;2023-07-16T12:20:20;7.55;;;6.75;;
10144;SDS011;5113;41.822;23.564;2023-07-16T12:23:26;8.15;;;7.35;;
10144;SDS011;5113;41.822;23.564;2023-07-16T12:26:33;7.30;;;6.70;;
10144;SDS011;5113;41.822;23.564;2023-07-16T12:29:40;7.43;;;6.72;;
10144;SDS011;5113;41.822;23.564;2023-07-16T12:32:46;7.97;;;7.00;;
10144;SDS011;5113;41.822;23.564;2023-07-16T12:35:52;7.88;;;7.03;;
10144;SDS011;5113;41.822;23.564;2023-07-16T12:38:59;7.60;;;6.85;;
10144;SDS011;5113;41.822;23.564;2023-07-16T12:42:07;9.40;;;7.75;;
10144;SDS011;5113;41.822;23.564;2023-07-16T12:45:14;7.50;;;6.80;;
10144;SDS011;5113;41.822;23.564;2023-07-16T12:48:20;8.52;;;7.65;;
10144;SDS011;5113;41.822;23.564;2023-07-16T12:51:26;7.57;;;6.88;;
10144;SDS011;5113;41.822;23.564;2023-07-16T12:54:32;8.05;;;7.25;;
10144;SDS011;5113;41.822;23.564;2023-07-16T12:57:40;9.20;;;7.40;;
10144;SDS011;5113;41.822;23.564;2023-07-16T13:00:46;9.23;;;7.07;;
10144;SDS011;5113;41.822;23.564;2023-07-16T13:03:53;7.75;;;7.03;;
10144;SDS011;5113;41.822;23.564;2023-07-16T13:06:59;8.43;;;6.82;;
10144;SDS011;5113;41.822;23.564;2023-07-16T13:10:06;10.25;;;7.18;;
10144;SDS011;5113;41.822;23.564;2023-07-16T13:13:28;8.45;;;7.10;;
10144;SDS011;5113;41.822;23.564;2023-07-16T13:16:34;8.18;;;7.10;;
10144;SDS011;5113;41.822;23.564;2023-07-16T13:19:40;7.57;;;6.80;;
10144;SDS011;5113;41.822;23.564;2023-07-16T13:22:49;7.85;;;7.05;;
10144;SDS011;5113;41.822;23.564;2023-07-16T13:25:55;9.75;;;7.65;;
10144;SDS011;5113;41.822;23.564;2023-07-16T13:29:03;8.23;;;7.43;;
10144;SDS011;5113;41.822;23.564;2023-07-16T13:32:09;7.47;;;6.78;;
10144;SDS011;5113;41.822;23.564;2023-07-16T13:35:15;8.05;;;7.30;;
10144;SDS011;5113;41.822;23.564;2023-07-16T13:38:22;9.70;;;7.07;;
10144;SDS011;5113;41.822;23.564;2023-07-16T13:41:28;9.57;;;7.40;;
10144;SDS011;5113;41.822;23.564;2023-07-16T13:44:35;7.40;;;6.63;;
10144;SDS011;5113;41.822;23.564;2023-07-16T13:47:42;8.63;;;7.60;;
10144;SDS011;5113;41.822;23.564;2023-07-16T13:50:48;10.55;;;7.30;;
10144;SDS011;5113;41.822;23.564;2023-07-16T13:53:54;8.60;;;7.40;;
10144;SDS011;5113;41.822;23.564;2023-07-16T13:57:01;7.30;;;6.28;;
10144;SDS011;5113;41.822;23.564;2023-07-16T14:00:09;10.68;;;6.93;;
10144;SDS011;5113;41.822;23.564;2023-07-16T14:03:17;7.43;;;6.72;;
10144;SDS011;5113;41.822;23.564;2023-07-16T14:06:23;7.38;;;6.63;;
10144;SDS011;5113;41.822;23.564;2023-07-16T14:09:30;7.93;;;7.13;;
10144;SDS011;5113;41.822;23.564;2023-07-16T14:12:36;10.27;;;6.20;;
10144;SDS011;5113;41.822;23.564;2023-07-16T14:15:43;8.20;;;7.50;;
10144;SDS011;5113;41.822;23.564;2023-07-16T14:18:50;7.45;;;6.75;;
10144;SDS011;5113;41.822;23.564;2023-07-16T14:21:58;7.00;;;6.28;;
10144;SDS011;5113;41.822;23.564;2023-07-16T14:25:05;8.43;;;7.53;;
10144;SDS011;5113;41.822;23.564;2023-07-16T14:28:13;9.35;;;8.38;;
10144;SDS011;5113;41.822;23.564;2023-07-16T14:31:21;9.13;;;8.02;;
10144;SDS011;5113;41.822;23.564;2023-07-16T14:34:27;9.60;;;7.88;;
10144;SDS011;5113;41.822;23.564;2023-07-16T14:37:34;7.72;;;6.95;;
10144;SDS011;5113;41.822;23.564;2023-07-16T14:40:40;8.63;;;7.82;;
10144;SDS011;5113;41.822;23.564;2023-07-16T14:43:47;9.27;;;7.88;;
10144;SDS011;5113;41.822;23.564;2023-07-16T14:46:56;12.23;;;10.93;;
10144;SDS011;5113;41.822;23.564;2023-07-16T14:50:02;9.65;;;7.68;;
10144;SDS011;5113;41.822;23.564;2023-07-16T14:53:10;7.07;;;6.35;;
10144;SDS011;5113;41.822;23.564;2023-07-16T14:56:17;10.32;;;7.15;;
10144;SDS011;5113;41.822;23.564;2023-07-16T14:59:23;7.50;;;6.32;;
10144;SDS011;5113;41.822;23.564;2023-07-16T15:02:31;7.85;;;7.10;;
10144;SDS011;5113;41.822;23.564;2023-07-16T15:05:37;7.65;;;6.68;;
10144;SDS011;5113;41.822;23.564;2023-07-16T15:08:43;6.93;;;6.10;;
10144;SDS011;5113;41.822;23.564;2023-07-16T15:11:49;7.35;;;6.65;;
10144;SDS011;5113;41.822;23.564;2023-07-16T15:14:56;9.05;;;5.95;;
10144;SDS011;5113;41.822;23.564;2023-07-16T15:18:04;7.22;;;6.30;;
10144;SDS011;5113;41.822;23.564;2023-07-16T15:21:10;7.00;;;6.35;;
10144;SDS011;5113;41.822;23.564;2023-07-16T15:24:17;7.03;;;6.43;;
10144;SDS011;5113;41.822;23.564;2023-07-16T15:27:24;11.50;;;8.15;;
10144;SDS011;5113;41.822;23.564;2023-07-16T15:30:30;8.13;;;6.72;;
10144;SDS011;5113;41.822;23.564;2023-07-16T15:33:38;7.05;;;6.30;;
10144;SDS011;5113;41.822;23.564;2023-07-16T15:36:44;7.57;;;6.75;;
10144;SDS011;5113;41.822;23.564;2023-07-16T15:39:51;9.25;;;6.90;;
10144;SDS011;5113;41.822;23.564;2023-07-16T15:42:57;6.47;;;5.93;;
10144;SDS011;5113;41.822;23.564;2023-07-16T15:46:03;7.63;;;6.85;;
10144;SDS011;5113;41.822;23.564;2023-07-16T15:49:11;7.25;;;6.55;;
10144;SDS011;5113;41.822;23.564;2023-07-16T15:52:17;6.68;;;5.95;;
10144;SDS011;5113;41.822;23.564;2023-07-16T15:55:23;6.63;;;5.97;;
10144;SDS011;5113;41.822;23.564;2023-07-16T15:58:30;7.13;;;6.28;;
10144;SDS011;5113;41.822;23.564;2023-07-16T16:01:36;9.88;;;7.07;;
10144;SDS011;5113;41.822;23.564;2023-07-16T16:04:45;6.90;;;6.22;;
10144;SDS011;5113;41.822;23.564;2023-07-16T16:11:19;6.80;;;6.20;;
10144;SDS011;5113;41.822;23.564;2023-07-16T16:14:25;7.63;;;6.88;;
10144;SDS011;5113;41.822;23.564;2023-07-16T16:17:34;7.28;;;6.30;;
10144;SDS011;5113;41.822;23.564;2023-07-16T16:20:42;7.70;;;6.40;;
10144;SDS011;5113;41.822;23.564;2023-07-16T16:23:50;6.40;;;5.43;;
10144;SDS011;5113;41.822;23.564;2023-07-16T16:26:56;5.97;;;5.47;;
10144;SDS011;5113;41.822;23.564;2023-07-16T16:30:03;6.50;;;5.72;;
10144;SDS011;5113;41.822;23.564;2023-07-16T16:33:10;7.78;;;6.80;;
10144;SDS011;5113;41.822;23.564;2023-07-16T16:36:18;6.50;;;5.78;;
10144;SDS011;5113;41.822;23.564;2023-07-16T16:39:25;7.10;;;6.38;;
10144;SDS011;5113;41.822;23.564;2023-07-16T16:42:31;6.90;;;5.82;;
10144;SDS011;5113;41.822;23.564;2023-07-16T16:45:37;6.88;;;5.80;;
10144;SDS011;5113;41.822;23.564;2023-07-16T16:48:46;6.88;;;6.10;;
10144;SDS011;5113;41.822;23.564;2023-07-16T16:51:54;6.28;;;5.32;;
10144;SDS011;5113;41.822;23.564;2023-07-16T16:55:00;6.80;;;6.03;;
10144;SDS011;5113;41.822;23.564;2023-07-16T16:58:07;6.70;;;5.75;;
10144;SDS011;5113;41.822;23.564;2023-07-16T17:01:13;7.65;;;5.97;;
10144;SDS011;5113;41.822;23.564;2023-07-16T17:04:21;6.40;;;5.80;;
10144;SDS011;5113;41.822;23.564;2023-07-16T17:07:28;9.65;;;6.82;;
10144;SDS011;5113;41.822;23.564;2023-07-16T17:10:35;6.05;;;5.47;;
10144;SDS011;5113;41.822;23.564;2023-07-16T17:13:41;7.57;;;6.50;;
10144;SDS011;5113;41.822;23.564;2023-07-16T17:16:47;6.82;;;5.85;;
10144;SDS011;5113;41.822;23.564;2023-07-16T17:19:54;7.20;;;6.20;;
10144;SDS011;5113;41.822;23.564;2023-07-16T17:23:02;6.90;;;5.95;;
10144;SDS011;5113;41.822;23.564;2023-07-16T17:26:08;7.22;;;6.47;;
10144;SDS011;5113;41.822;23.564;2023-07-16T17:29:16;7.05;;;6.10;;
10144;SDS011;5113;41.822;23.564;2023-07-16T17:32:24;7.05;;;5.85;;
10144;SDS011;5113;41.822;23.564;2023-07-16T17:35:30;7.30;;;6.22;;
10144;SDS011;5113;41.822;23.564;2023-07-16T17:38:38;5.72;;;5.00;;
10144;SDS011;5113;41.822;23.564;2023-07-16T17:41:44;7.03;;;6.00;;
10144;SDS011;5113;41.822;23.564;2023-07-16T17:44:51;7.30;;;6.60;;
10144;SDS011;5113;41.822;23.564;2023-07-16T17:47:59;9.05;;;6.88;;
10144;SDS011;5113;41.822;23.564;2023-07-16T17:51:06;6.10;;;5.55;;
10144;SDS011;5113;41.822;23.564;2023-07-16T17:54:14;8.85;;;5.95;;
10144;SDS011;5113;41.822;23.564;2023-07-16T17:57:21;6.50;;;5.88;;
10144;SDS011;5113;41.822;23.564;2023-07-16T18:00:27;6.95;;;6.10;;
10144;SDS011;5113;41.822;23.564;2023-07-16T18:03:33;7.20;;;5.43;;
10144;SDS011;5113;41.822;23.564;2023-07-16T18:06:40;6.60;;;6.00;;
10144;SDS011;5113;41.822;23.564;2023-07-16T18:09:48;6.00;;;5.40;;
10144;SDS011;5113;41.822;23.564;2023-07-16T18:12:57;5.55;;;5.05;;
10144;SDS011;5113;41.822;23.564;2023-07-16T18:16:04;5.55;;;5.07;;
10144;SDS011;5113;41.822;23.564;2023-07-16T18:19:10;6.18;;;5.30;;
10144;SDS011;5113;41.822;23.564;2023-07-16T18:22:19;8.38;;;5.72;;
10144;SDS011;5113;41.822;23.564;2023-07-16T18:25:36;6.20;;;5.57;;
10144;SDS011;5113;41.822;23.564;2023-07-16T18:28:43;6.63;;;5.90;;
10144;SDS011;5113;41.822;23.564;2023-07-16T18:31:49;6.82;;;5.70;;
10144;SDS011;5113;41.822;23.564;2023-07-16T18:34:55;7.18;;;6.47;;
10144;SDS011;5113;41.822;23.564;2023-07-16T18:38:02;10.20;;;6.28;;
10144;SDS011;5113;41.822;23.564;2023-07-16T18:41:09;8.10;;;6.82;;
10144;SDS011;5113;41.822;23.564;2023-07-16T18:44:16;7.38;;;5.93;;